createdAt,value
2022-09-29T00:01:53.847Z,10.02
2022-09-29T00:04:23.637Z,7.68
2022-09-29T00:06:53.361Z,8.55
2022-09-29T00:09:23.207Z,7.85
2022-09-29T00:11:57.060Z,8.43
2022-09-29T00:14:27.265Z,9.75
2022-09-29T00:16:57.216Z,9.35
2022-09-29T00:19:28.737Z,12.00
2022-09-29T00:21:58.443Z,8.95
2022-09-29T00:24:28.597Z,7.88
2022-09-29T00:27:00.897Z,8.15
2022-09-29T00:29:31.030Z,8.52
2022-09-29T00:32:00.875Z,9.45
2022-09-29T00:34:30.619Z,7.75
2022-09-29T00:37:00.345Z,9.75
2022-09-29T00:39:30.092Z,7.93
2022-09-29T00:42:02.449Z,5.95
2022-09-29T00:44:57.717Z,8.95
2022-09-29T00:50:02.577Z,6.35
2022-09-29T00:55:08.576Z,8.55
2022-09-29T00:57:46.478Z,8.52
2022-09-29T01:00:17.815Z,7.30
2022-09-29T01:02:53.165Z,8.98
2022-09-29T01:05:27.068Z,7.40
2022-09-29T01:07:57.204Z,10.48
2022-09-29T01:10:27.510Z,12.20
2022-09-29T01:13:00.083Z,10.38
2022-09-29T01:15:30.422Z,10.45
2022-09-29T01:18:00.451Z,9.07
2022-09-29T01:20:37.785Z,11.18
2022-09-29T01:23:38.098Z,11.55
2022-09-29T01:26:38.511Z,20.88
2022-09-29T01:29:47.148Z,8.63
2022-09-29T01:32:26.723Z,10.68
2022-09-29T01:35:04.813Z,8.93
2022-09-29T01:37:46.846Z,11.75
2022-09-29T01:40:19.109Z,9.95
2022-09-29T01:42:57.791Z,9.13
2022-09-29T01:45:32.715Z,9.10
2022-09-29T01:48:09.639Z,12.00
2022-09-29T01:50:43.037Z,12.32
2022-09-29T01:53:18.060Z,7.63
2022-09-29T01:55:52.596Z,11.15
2022-09-29T01:58:26.154Z,11.52
2022-09-29T02:00:59.939Z,9.33
2022-09-29T02:03:37.178Z,11.40
2022-09-29T02:06:13.595Z,9.45
2022-09-29T02:08:46.132Z,8.38
2022-09-29T02:11:17.001Z,12.13
2022-09-29T02:13:52.197Z,11.65
2022-09-29T02:16:26.028Z,9.40
2022-09-29T02:19:03.181Z,8.82
2022-09-29T02:21:34.206Z,7.78
2022-09-29T02:24:04.290Z,9.18
2022-09-29T02:26:36.419Z,9.05
2022-09-29T02:29:07.557Z,9.35
2022-09-29T02:31:39.126Z,9.68
2022-09-29T02:34:15.039Z,13.27
2022-09-29T02:36:53.526Z,7.57
2022-09-29T02:39:31.263Z,11.07
2022-09-29T02:42:09.494Z,14.00
2022-09-29T02:44:53.745Z,9.45
2022-09-29T02:47:55.513Z,10.52
2022-09-29T02:50:43.296Z,11.27
2022-09-29T02:53:24.109Z,11.15
2022-09-29T02:56:02.839Z,15.20
2022-09-29T02:58:43.948Z,12.75
2022-09-29T03:01:17.758Z,9.90
2022-09-29T03:03:47.707Z,10.07
2022-09-29T03:06:22.855Z,8.57
2022-09-29T03:08:52.638Z,8.25
2022-09-29T03:11:22.465Z,6.85
2022-09-29T03:13:52.266Z,9.30
2022-09-29T03:16:22.111Z,7.65
2022-09-29T03:18:51.855Z,9.38
2022-09-29T03:21:24.193Z,10.25
2022-09-29T03:23:57.518Z,11.27
2022-09-29T03:26:27.727Z,9.10
2022-09-29T03:28:57.442Z,9.15
2022-09-29T03:31:27.358Z,7.38
2022-09-29T03:33:57.155Z,10.07
2022-09-29T03:36:30.669Z,13.23
2022-09-29T03:39:00.498Z,6.38
2022-09-29T03:41:30.229Z,8.45
2022-09-29T03:43:59.960Z,6.40
2022-09-29T03:46:29.675Z,6.07
2022-09-29T03:48:59.415Z,7.20
2022-09-29T03:51:31.717Z,6.75
2022-09-29T03:54:01.443Z,7.30
2022-09-29T03:56:31.265Z,8.23
2022-09-29T03:59:01.056Z,8.00
2022-09-29T04:01:30.936Z,8.00
2022-09-29T04:04:00.786Z,7.68
2022-09-29T04:06:33.161Z,9.32
2022-09-29T04:09:03.117Z,7.43
2022-09-29T04:11:32.980Z,7.82
2022-09-29T04:14:02.707Z,9.80
2022-09-29T04:16:32.496Z,7.35
2022-09-29T04:19:03.928Z,10.02
2022-09-29T04:21:36.239Z,9.10
2022-09-29T04:24:05.977Z,8.02
2022-09-29T04:26:35.727Z,9.75
2022-09-29T04:29:05.514Z,9.18
2022-09-29T04:31:35.444Z,9.70
2022-09-29T04:34:05.393Z,8.57
2022-09-29T04:36:38.923Z,11.75
2022-09-29T04:39:09.032Z,11.02
2022-09-29T04:41:39.731Z,8.55
2022-09-29T04:44:09.575Z,9.63
2022-09-29T04:46:39.376Z,10.02
2022-09-29T04:49:09.355Z,7.95
2022-09-29T04:51:41.775Z,11.43
2022-09-29T04:54:11.473Z,11.45
2022-09-29T04:56:41.285Z,9.50
2022-09-29T04:59:13.046Z,9.88
2022-09-29T05:01:42.835Z,10.40
2022-09-29T05:04:13.563Z,9.30
2022-09-29T05:06:45.869Z,8.70
2022-09-29T05:09:16.557Z,11.52
2022-09-29T05:11:46.451Z,9.10
2022-09-29T05:14:16.432Z,10.02
2022-09-29T05:16:46.179Z,10.05
2022-09-29T05:19:16.006Z,13.32
2022-09-29T05:21:49.497Z,10.75
2022-09-29T05:24:19.644Z,9.38
2022-09-29T05:26:49.391Z,8.88
2022-09-29T05:29:19.494Z,12.82
2022-09-29T05:31:49.458Z,11.75
2022-09-29T05:34:19.443Z,8.07
2022-09-29T05:36:51.915Z,10.57
2022-09-29T05:39:21.757Z,10.15
2022-09-29T05:41:54.562Z,7.85
2022-09-29T05:44:27.928Z,11.50
2022-09-29T05:46:57.701Z,8.65
2022-09-29T05:49:27.437Z,10.30
2022-09-29T05:51:59.720Z,9.18
2022-09-29T05:54:30.060Z,8.02
2022-09-29T05:56:59.848Z,8.77
2022-09-29T05:59:29.591Z,10.38
2022-09-29T06:01:59.668Z,12.38
2022-09-29T06:04:29.435Z,9.55
2022-09-29T06:07:01.875Z,11.93
2022-09-29T06:09:31.593Z,10.55
2022-09-29T06:12:01.817Z,12.85
2022-09-29T06:14:31.556Z,16.52
2022-09-29T06:17:01.265Z,10.02
2022-09-29T06:19:31.002Z,11.57
2022-09-29T06:22:03.359Z,12.35
2022-09-29T06:24:33.091Z,10.57
2022-09-29T06:27:02.811Z,13.45
2022-09-29T06:29:32.505Z,10.27
2022-09-29T06:32:02.340Z,10.88
2022-09-29T06:34:32.102Z,12.48
2022-09-29T06:37:16.949Z,13.40
2022-09-29T06:39:46.650Z,14.88
2022-09-29T06:42:16.439Z,9.75
2022-09-29T06:44:46.149Z,13.98
2022-09-29T06:47:15.880Z,11.80
2022-09-29T06:49:52.894Z,12.52
2022-09-29T06:52:32.020Z,12.55
2022-09-29T06:55:01.708Z,10.05
2022-09-29T06:57:31.474Z,9.13
2022-09-29T07:00:01.218Z,7.82
2022-09-29T07:02:31.042Z,9.70
2022-09-29T07:05:00.760Z,10.80
2022-09-29T07:07:33.450Z,8.25
2022-09-29T07:10:03.201Z,5.60
2022-09-29T07:12:33.060Z,9.93
2022-09-29T07:15:02.855Z,8.23
2022-09-29T07:17:32.590Z,9.90
2022-09-29T07:20:02.341Z,6.10
2022-09-29T07:22:34.669Z,8.35
2022-09-29T07:25:04.465Z,5.85
2022-09-29T07:27:35.424Z,9.68
2022-09-29T07:30:05.849Z,9.55
2022-09-29T07:32:35.596Z,9.48
2022-09-29T07:35:05.519Z,14.73
2022-09-29T07:37:37.854Z,8.50
2022-09-29T07:40:09.133Z,10.90
2022-09-29T07:42:38.907Z,7.95
2022-09-29T07:45:10.284Z,7.45
2022-09-29T07:47:40.001Z,6.93
2022-09-29T07:50:10.721Z,10.05
2022-09-29T07:52:43.045Z,8.75
2022-09-29T07:55:13.009Z,13.35
2022-09-29T07:57:42.707Z,7.55
2022-09-29T08:00:14.095Z,7.40
2022-09-29T08:02:44.005Z,8.85
2022-09-29T08:05:13.800Z,6.47
2022-09-29T08:07:46.097Z,9.88
2022-09-29T08:10:17.838Z,9.57
2022-09-29T08:12:48.136Z,11.35
2022-09-29T08:15:18.079Z,11.27
2022-09-29T08:17:47.885Z,9.90
2022-09-29T08:20:17.822Z,10.25
2022-09-29T08:22:51.001Z,10.70
2022-09-29T08:25:21.182Z,9.63
2022-09-29T08:27:55.565Z,7.18
2022-09-29T08:30:25.694Z,6.60
2022-09-29T08:32:55.974Z,8.13
2022-09-29T08:35:26.086Z,7.18
2022-09-29T08:37:59.391Z,7.78
2022-09-29T08:40:31.766Z,7.03
2022-09-29T08:43:07.883Z,6.63
2022-09-29T08:45:55.419Z,9.63
2022-09-29T08:48:30.576Z,6.88
2022-09-29T08:51:03.511Z,8.98
2022-09-29T08:53:41.263Z,9.38
2022-09-29T08:56:18.759Z,6.15
2022-09-29T08:58:48.594Z,8.27
2022-09-29T09:01:27.152Z,7.13
2022-09-29T09:04:20.998Z,6.53
2022-09-29T09:07:04.508Z,6.60
2022-09-29T09:09:51.999Z,8.10
2022-09-29T09:12:45.184Z,6.45
2022-09-29T09:15:39.246Z,6.75
2022-09-29T09:18:36.030Z,6.57
2022-09-29T09:21:10.990Z,6.55
2022-09-29T09:23:56.819Z,7.65
2022-09-29T09:26:39.266Z,7.97
2022-09-29T09:29:16.577Z,4.43
2022-09-29T09:31:51.290Z,6.22
2022-09-29T09:34:38.692Z,2.75
2022-09-29T09:37:16.437Z,4.85
2022-09-29T09:39:53.782Z,5.75
2022-09-29T09:42:29.624Z,6.00
2022-09-29T09:45:04.387Z,5.88
2022-09-29T09:47:40.754Z,6.47
2022-09-29T09:50:18.069Z,4.68
2022-09-29T09:52:50.481Z,7.82
2022-09-29T09:55:22.124Z,6.07
2022-09-29T09:58:07.769Z,5.72
2022-09-29T10:00:41.657Z,5.22
2022-09-29T10:03:14.437Z,6.47
2022-09-29T10:05:46.643Z,5.75
2022-09-29T10:08:22.359Z,7.63
2022-09-29T10:10:58.792Z,3.78
2022-09-29T10:13:33.875Z,5.45
2022-09-29T10:16:15.120Z,11.35
2022-09-29T10:18:46.602Z,7.07
2022-09-29T10:21:25.279Z,5.28
2022-09-29T10:23:56.236Z,4.20
2022-09-29T10:26:29.293Z,6.88
2022-09-29T10:29:04.746Z,5.63
2022-09-29T10:31:37.202Z,6.50
2022-09-29T10:34:19.037Z,5.80
2022-09-29T10:36:54.804Z,8.55
2022-09-29T10:39:36.169Z,5.85
2022-09-29T10:42:06.119Z,5.95
2022-09-29T10:44:42.382Z,3.35
2022-09-29T10:47:18.047Z,4.30
2022-09-29T10:49:47.846Z,7.00
2022-09-29T10:52:26.727Z,6.13
2022-09-29T10:55:00.394Z,6.25
2022-09-29T10:57:32.880Z,7.00
2022-09-29T11:00:06.815Z,8.00
2022-09-29T11:02:40.745Z,6.32
2022-09-29T11:05:20.634Z,8.43
2022-09-29T11:07:53.253Z,5.18
2022-09-29T11:10:35.418Z,7.10
2022-09-29T11:13:41.334Z,4.03
2022-09-29T11:16:21.500Z,5.07
2022-09-29T11:18:54.408Z,6.40
2022-09-29T11:22:00.272Z,5.82
2022-09-29T11:24:58.956Z,4.28
2022-09-29T11:27:40.865Z,5.40
2022-09-29T11:30:14.719Z,3.90
2022-09-29T11:33:09.438Z,4.60
2022-09-29T11:35:53.885Z,4.40
2022-09-29T11:38:40.078Z,4.97
2022-09-29T11:41:25.403Z,3.45
2022-09-29T11:43:58.501Z,3.67
2022-09-29T11:46:48.356Z,7.63
2022-09-29T11:49:43.891Z,5.45
2022-09-29T11:52:37.980Z,5.10
2022-09-29T11:55:28.237Z,5.20
2022-09-29T11:58:07.847Z,6.55
2022-09-29T12:00:50.765Z,5.10
2022-09-29T12:03:32.563Z,4.85
2022-09-29T12:06:19.812Z,3.13
2022-09-29T12:09:00.978Z,3.80
2022-09-29T12:11:54.681Z,2.25
2022-09-29T12:14:41.225Z,4.20
2022-09-29T12:17:14.560Z,3.83
2022-09-29T12:19:47.845Z,4.93
2022-09-29T12:22:22.546Z,3.47
2022-09-29T12:24:56.036Z,5.72
2022-09-29T12:27:29.578Z,4.10
2022-09-29T12:30:04.873Z,6.32
2022-09-29T12:32:40.072Z,3.60
2022-09-29T12:35:18.122Z,4.97
2022-09-29T12:37:56.767Z,2.45
2022-09-29T12:40:32.991Z,3.22
2022-09-29T12:43:08.734Z,7.35
2022-09-29T12:45:46.872Z,4.70
2022-09-29T12:48:28.931Z,4.70
2022-09-29T12:51:04.162Z,6.32
2022-09-29T12:53:41.666Z,3.33
2022-09-29T12:56:16.761Z,3.38
2022-09-29T12:58:53.703Z,3.67
2022-09-29T13:01:27.129Z,2.78
2022-09-29T13:04:24.860Z,4.17
2022-09-29T13:07:30.283Z,5.25
2022-09-29T13:13:03.134Z,5.43
2022-09-29T13:16:00.387Z,6.03
2022-09-29T13:19:14.568Z,4.05
2022-09-29T13:22:01.961Z,5.05
2022-09-29T13:24:50.042Z,5.35
2022-09-29T13:27:35.374Z,3.72
2022-09-29T13:30:14.536Z,3.53
2022-09-29T13:32:46.504Z,2.95
2022-09-29T13:35:21.711Z,2.65
2022-09-29T13:37:55.314Z,6.68
2022-09-29T13:40:28.214Z,5.60
2022-09-29T13:43:03.161Z,5.38
2022-09-29T13:45:47.265Z,4.07
2022-09-29T13:48:39.384Z,2.30
2022-09-29T13:51:54.086Z,5.00
2022-09-29T13:54:42.748Z,4.03
2022-09-29T13:57:30.720Z,2.90
2022-09-29T14:00:32.654Z,6.97
2022-09-29T14:03:24.140Z,5.32
2022-09-29T14:06:36.222Z,6.60
2022-09-29T14:09:03.901Z,3.38
2022-09-29T14:11:37.397Z,3.72
2022-09-29T14:14:11.347Z,6.22
2022-09-29T14:16:57.115Z,3.40
2022-09-29T14:19:45.586Z,7.93
2022-09-29T14:22:45.419Z,4.18
2022-09-29T14:25:53.627Z,2.72
2022-09-29T14:28:31.603Z,4.47
2022-09-29T14:31:04.217Z,3.40
2022-09-29T14:33:39.809Z,3.40
2022-09-29T14:36:14.389Z,4.40
2022-09-29T14:39:02.718Z,4.15
2022-09-29T14:41:44.459Z,3.08
2022-09-29T14:44:19.251Z,1.90
2022-09-29T14:47:23.921Z,4.22
2022-09-29T14:50:36.347Z,4.40
2022-09-29T14:53:28.055Z,3.92
2022-09-29T14:56:06.821Z,6.35
2022-09-29T14:58:59.797Z,2.83
2022-09-29T15:01:31.801Z,4.25
2022-09-29T15:04:09.432Z,2.85
2022-09-29T15:06:48.511Z,5.93
2022-09-29T15:09:20.915Z,2.58
2022-09-29T15:11:53.848Z,3.13
2022-09-29T15:14:27.995Z,4.32
2022-09-29T15:17:08.640Z,4.65
2022-09-29T15:20:00.985Z,5.57
2022-09-29T15:23:03.276Z,4.05
2022-09-29T15:25:40.805Z,3.88
2022-09-29T15:28:17.052Z,4.18
2022-09-29T15:30:48.186Z,5.30
2022-09-29T15:33:24.948Z,2.88
2022-09-29T15:35:58.796Z,8.13
2022-09-29T15:38:37.170Z,6.80
2022-09-29T15:41:20.066Z,6.22
2022-09-29T15:44:00.280Z,3.65
2022-09-29T15:46:40.457Z,3.35
2022-09-29T15:49:19.334Z,3.80
2022-09-29T15:51:59.566Z,3.60
2022-09-29T15:54:35.017Z,4.38
2022-09-29T15:57:20.675Z,3.53
2022-09-29T15:59:54.175Z,2.38
2022-09-29T16:02:32.942Z,3.60
2022-09-29T16:05:05.979Z,5.15
2022-09-29T16:07:38.291Z,6.63
2022-09-29T16:10:16.083Z,3.40
2022-09-29T16:12:56.487Z,4.07
2022-09-29T16:15:31.016Z,4.90
2022-09-29T16:18:02.449Z,3.13
2022-09-29T16:20:34.278Z,4.63
2022-09-29T16:23:09.484Z,3.80
2022-09-29T16:25:39.247Z,2.85
2022-09-29T16:28:29.483Z,3.92
2022-09-29T16:31:07.510Z,6.22
2022-09-29T16:33:37.951Z,5.78
2022-09-29T16:36:10.734Z,6.43
2022-09-29T16:38:42.756Z,4.95
2022-09-29T16:41:23.989Z,5.88
2022-09-29T16:44:07.127Z,5.88
2022-09-29T16:46:44.453Z,5.82
2022-09-29T16:49:19.886Z,6.88
2022-09-29T16:51:51.466Z,6.72
2022-09-29T16:54:26.584Z,6.15
2022-09-29T16:57:21.440Z,7.57
2022-09-29T16:59:56.312Z,5.50
2022-09-29T17:02:27.246Z,6.75
2022-09-29T17:04:58.153Z,6.85
2022-09-29T17:07:29.660Z,6.45
2022-09-29T17:10:01.240Z,7.30
2022-09-29T17:12:33.460Z,6.10
2022-09-29T17:15:05.942Z,6.10
2022-09-29T17:17:35.713Z,6.50
2022-09-29T17:20:05.549Z,7.32
2022-09-29T17:22:37.947Z,7.45
2022-09-29T17:25:10.768Z,9.40
2022-09-29T17:27:53.631Z,8.63
2022-09-29T17:30:28.441Z,5.38
2022-09-29T17:33:00.492Z,8.13
2022-09-29T17:35:32.674Z,6.65
2022-09-29T17:38:02.678Z,7.15
2022-09-29T17:40:37.423Z,8.05
2022-09-29T17:43:07.619Z,6.32
2022-09-29T17:45:41.993Z,8.82
2022-09-29T17:48:12.123Z,10.40
2022-09-29T17:50:44.936Z,8.93
2022-09-29T17:53:17.084Z,6.55
2022-09-29T17:55:49.576Z,9.75
2022-09-29T17:58:21.082Z,7.80
2022-09-29T18:00:57.392Z,9.35
2022-09-29T18:03:29.372Z,9.48
2022-09-29T18:06:00.212Z,10.60
2022-09-29T18:08:31.006Z,9.63
2022-09-29T18:11:02.314Z,9.50
2022-09-29T18:13:33.958Z,8.90
2022-09-29T18:16:06.657Z,10.45
2022-09-29T18:18:36.851Z,9.00
2022-09-29T18:21:07.823Z,9.77
2022-09-29T18:23:37.802Z,7.10
2022-09-29T18:26:09.555Z,8.02
2022-09-29T18:28:39.273Z,9.43
2022-09-29T18:31:25.349Z,7.13
2022-09-29T18:33:55.459Z,8.80
2022-09-29T18:36:25.371Z,8.57
2022-09-29T18:38:55.158Z,8.93
2022-09-29T18:41:24.981Z,11.15
2022-09-29T18:43:56.237Z,10.27
2022-09-29T18:46:32.099Z,11.60
2022-09-29T18:49:03.908Z,13.13
2022-09-29T18:51:34.523Z,10.77
2022-09-29T18:54:04.473Z,11.07
2022-09-29T18:56:34.438Z,13.60
2022-09-29T18:59:05.638Z,15.10
2022-09-29T19:01:38.054Z,13.00
2022-09-29T19:04:07.881Z,12.85
2022-09-29T19:06:37.612Z,12.77
2022-09-29T19:09:07.402Z,13.18
2022-09-29T19:11:37.240Z,14.68
2022-09-29T19:14:07.956Z,12.32
2022-09-29T19:16:40.282Z,8.35
2022-09-29T19:19:10.365Z,9.38
2022-09-29T19:21:42.553Z,10.35
2022-09-29T19:24:12.385Z,9.70
2022-09-29T19:26:42.211Z,9.77
2022-09-29T19:29:12.003Z,11.90
2022-09-29T19:31:44.577Z,10.38
2022-09-29T19:34:14.416Z,9.85
2022-09-29T19:36:44.187Z,9.75
2022-09-29T19:39:14.562Z,11.23
2022-09-29T19:41:44.549Z,8.93
2022-09-29T19:44:14.508Z,10.05
2022-09-29T19:46:46.924Z,8.98
2022-09-29T19:49:16.828Z,8.80
2022-09-29T19:51:50.255Z,11.85
2022-09-29T19:54:21.606Z,11.98
2022-09-29T19:56:54.090Z,17.48
2022-09-29T19:59:26.455Z,11.20
2022-09-29T20:01:59.507Z,16.17
2022-09-29T20:04:32.362Z,11.00
2022-09-29T20:07:02.776Z,11.35
2022-09-29T20:09:33.190Z,10.88
2022-09-29T20:12:03.750Z,12.98
2022-09-29T20:14:36.534Z,12.20
2022-09-29T20:17:14.070Z,13.38
2022-09-29T20:20:04.596Z,14.25
2022-09-29T20:22:45.647Z,15.18
2022-09-29T20:25:15.802Z,12.68
2022-09-29T20:27:45.641Z,10.02
2022-09-29T20:30:15.389Z,10.30
2022-09-29T20:32:47.693Z,10.82
2022-09-29T20:35:17.712Z,11.55
2022-09-29T20:37:49.695Z,9.63
2022-09-29T20:40:19.703Z,11.05
2022-09-29T20:42:49.496Z,8.20
2022-09-29T20:45:19.586Z,11.25
2022-09-29T20:47:51.887Z,11.07
2022-09-29T20:50:21.597Z,8.80
2022-09-29T20:52:51.448Z,12.57
2022-09-29T20:55:21.194Z,13.63
2022-09-29T20:57:55.402Z,14.13
2022-09-29T21:00:25.421Z,15.10
2022-09-29T21:02:57.872Z,14.93
2022-09-29T21:05:27.663Z,12.93
2022-09-29T21:07:57.375Z,10.75
2022-09-29T21:10:27.847Z,12.32
2022-09-29T21:12:57.631Z,13.73
2022-09-29T21:15:27.394Z,12.50
2022-09-29T21:17:59.754Z,16.35
2022-09-29T21:20:29.580Z,12.13
2022-09-29T21:22:59.419Z,14.70
2022-09-29T21:25:32.251Z,12.27
2022-09-29T21:28:02.282Z,12.48
2022-09-29T21:30:32.510Z,14.15
2022-09-29T21:33:04.847Z,10.27
2022-09-29T21:35:34.622Z,20.30
2022-09-29T21:38:04.374Z,16.27
2022-09-29T21:40:35.074Z,11.65
2022-09-29T21:43:04.849Z,13.35
2022-09-29T21:45:34.560Z,13.00
2022-09-29T21:48:13.060Z,12.25
2022-09-29T21:50:43.046Z,19.55
2022-09-29T21:53:13.280Z,15.63
2022-09-29T21:55:44.412Z,16.25
2022-09-29T21:58:14.139Z,19.23
2022-09-29T22:00:43.896Z,16.77
2022-09-29T22:03:16.211Z,17.95
2022-09-29T22:05:45.971Z,16.90
2022-09-29T22:08:15.720Z,12.80
2022-09-29T22:10:46.875Z,15.07
2022-09-29T22:13:16.573Z,18.75
2022-09-29T22:15:46.687Z,17.42
2022-09-29T22:18:19.165Z,15.68
2022-09-29T22:20:48.985Z,18.23
2022-09-29T22:23:21.279Z,18.52
2022-09-29T22:25:51.289Z,14.07
2022-09-29T22:28:28.497Z,15.35
2022-09-29T22:31:09.561Z,23.02
2022-09-29T22:33:44.483Z,19.00
2022-09-29T22:36:15.323Z,13.80
2022-09-29T22:38:48.376Z,13.65
2022-09-29T22:41:23.991Z,13.57
2022-09-29T22:43:55.069Z,16.40
2022-09-29T22:46:25.992Z,16.13
2022-09-29T22:48:58.720Z,15.98
2022-09-29T22:51:28.838Z,14.82
2022-09-29T22:53:59.563Z,17.92
2022-09-29T22:56:30.832Z,14.25
2022-09-29T22:59:04.223Z,18.13
2022-09-29T23:01:34.684Z,16.38
2022-09-29T23:04:07.301Z,18.10
2022-09-29T23:06:38.221Z,14.77
2022-09-29T23:09:09.145Z,14.35
2022-09-29T23:11:39.241Z,12.68
2022-09-29T23:14:09.103Z,14.15
2022-09-29T23:16:38.891Z,18.23
2022-09-29T23:19:13.656Z,14.63
2022-09-29T23:21:43.469Z,14.23
2022-09-29T23:24:13.446Z,14.45
2022-09-29T23:26:43.285Z,19.90
2022-09-29T23:29:14.000Z,15.25
2022-09-29T23:31:49.273Z,20.33
2022-09-29T23:34:23.713Z,15.55
2022-09-29T23:36:53.714Z,18.05
2022-09-29T23:39:20.935Z,16.15
2022-09-29T23:41:52.569Z,17.70
2022-09-29T23:44:24.517Z,16.38
2022-09-29T23:46:56.006Z,15.20
2022-09-29T23:49:30.261Z,18.42
2022-09-29T23:52:02.135Z,17.77
2022-09-29T23:54:32.049Z,16.60
2022-09-29T23:57:01.844Z,16.65
2022-09-29T23:59:31.572Z,16.17
